createdAt,value
2022-08-26T00:02:13.415Z,15.30
2022-08-26T00:04:43.771Z,15.17
2022-08-26T00:07:11.987Z,14.43
2022-08-26T00:09:40.465Z,15.53
2022-08-26T00:12:12.249Z,15.40
2022-08-26T00:14:41.394Z,16.63
2022-08-26T00:17:09.682Z,15.37
2022-08-26T00:19:39.346Z,17.00
2022-08-26T00:22:08.520Z,16.20
2022-08-26T00:24:36.661Z,17.00
2022-08-26T00:27:06.384Z,17.57
2022-08-26T00:29:37.639Z,17.93
2022-08-26T00:32:06.572Z,18.57
2022-08-26T00:34:35.000Z,19.00
2022-08-26T00:37:04.826Z,19.80
2022-08-26T00:39:38.041Z,19.10
2022-08-26T00:42:06.417Z,19.30
2022-08-26T00:44:34.546Z,19.40
2022-08-26T00:47:06.672Z,19.97
2022-08-26T00:49:39.551Z,17.30
2022-08-26T00:52:13.263Z,19.57
2022-08-26T00:54:47.648Z,19.30
2022-08-26T00:57:18.972Z,18.10
2022-08-26T00:59:52.028Z,18.07
2022-08-26T01:02:21.338Z,16.80
2022-08-26T01:04:55.631Z,19.70
2022-08-26T01:07:27.436Z,17.97
2022-08-26T01:09:56.126Z,18.30
2022-08-26T01:12:25.825Z,19.27
2022-08-26T01:14:54.205Z,19.60
2022-08-26T01:17:22.342Z,18.70
2022-08-26T01:19:53.651Z,18.53
2022-08-26T01:22:28.671Z,17.93
2022-08-26T01:24:59.607Z,18.30
2022-08-26T01:27:32.458Z,18.80
2022-08-26T01:30:02.649Z,19.50
2022-08-26T01:32:32.901Z,18.97
2022-08-26T01:35:01.859Z,18.63
2022-08-26T01:37:36.533Z,18.93
2022-08-26T01:40:08.639Z,18.20
2022-08-26T01:42:37.195Z,19.00
2022-08-26T01:45:10.917Z,17.73
2022-08-26T01:47:40.394Z,18.80
2022-08-26T01:50:15.835Z,20.10
2022-08-26T01:52:58.830Z,20.00
2022-08-26T01:55:33.409Z,18.83
2022-08-26T01:58:05.803Z,18.80
2022-08-26T02:00:36.587Z,20.30
2022-08-26T02:03:22.149Z,18.60
2022-08-26T02:05:54.105Z,19.90
2022-08-26T02:08:27.486Z,18.57
2022-08-26T02:10:57.519Z,20.77
2022-08-26T02:13:30.074Z,20.67
2022-08-26T02:16:00.849Z,19.23
2022-08-26T02:18:31.369Z,19.17
2022-08-26T02:20:59.568Z,20.70
2022-08-26T02:23:28.308Z,20.57
2022-08-26T02:26:04.794Z,20.60
2022-08-26T02:28:38.468Z,19.70
2022-08-26T02:31:08.376Z,21.03
2022-08-26T02:33:38.174Z,19.80
2022-08-26T02:36:12.154Z,19.30
2022-08-26T02:38:43.072Z,17.90
2022-08-26T02:41:12.722Z,18.87
2022-08-26T02:43:41.088Z,19.40
2022-08-26T02:46:09.232Z,17.47
2022-08-26T02:48:37.554Z,16.90
2022-08-26T02:51:06.016Z,17.07
2022-08-26T02:53:35.535Z,18.50
2022-08-26T02:56:04.722Z,18.63
2022-08-26T02:58:34.379Z,18.07
2022-08-26T03:01:04.851Z,18.33
2022-08-26T03:03:34.034Z,18.13
2022-08-26T03:06:02.298Z,17.73
2022-08-26T03:08:30.393Z,18.90
2022-08-26T03:10:59.199Z,19.53
2022-08-26T03:13:29.820Z,20.30
2022-08-26T03:16:01.856Z,19.93
2022-08-26T03:18:30.164Z,19.37
2022-08-26T03:20:58.603Z,21.03
2022-08-26T03:23:26.685Z,19.47
2022-08-26T03:25:54.900Z,17.47
2022-08-26T03:28:24.148Z,20.07
2022-08-26T03:30:54.661Z,19.10
2022-08-26T03:33:24.410Z,18.10
2022-08-26T03:35:53.482Z,19.60
2022-08-26T03:38:22.076Z,18.00
2022-08-26T03:40:50.506Z,18.13
2022-08-26T03:43:19.046Z,17.43
2022-08-26T03:45:47.206Z,17.50
2022-08-26T03:48:15.337Z,17.93
2022-08-26T03:50:44.833Z,18.90
2022-08-26T03:53:13.428Z,18.70
2022-08-26T03:55:42.357Z,18.50
2022-08-26T03:58:11.896Z,18.20
2022-08-26T04:00:40.335Z,20.17
2022-08-26T04:03:12.160Z,20.93
2022-08-26T04:05:45.224Z,19.17
2022-08-26T04:08:14.036Z,20.10
2022-08-26T04:10:42.194Z,19.97
2022-08-26T04:13:12.112Z,18.20
2022-08-26T04:15:40.463Z,19.13
2022-08-26T04:18:08.542Z,19.73
2022-08-26T04:20:36.957Z,18.43
2022-08-26T04:23:06.594Z,19.10
2022-08-26T04:25:35.729Z,20.80
2022-08-26T04:28:04.334Z,19.20
2022-08-26T04:30:33.354Z,18.87
2022-08-26T04:33:04.513Z,19.57
2022-08-26T04:35:43.603Z,17.40
2022-08-26T04:38:13.368Z,19.77
2022-08-26T04:40:46.700Z,20.67
2022-08-26T04:43:15.321Z,20.27
2022-08-26T04:45:43.995Z,18.87
2022-08-26T04:48:12.193Z,20.13
2022-08-26T04:50:44.924Z,18.43
2022-08-26T04:53:19.007Z,19.17
2022-08-26T04:55:48.420Z,19.10
2022-08-26T04:58:17.241Z,19.40
2022-08-26T05:00:45.775Z,21.33
2022-08-26T05:03:14.401Z,19.47
2022-08-26T05:05:43.458Z,19.67
2022-08-26T05:08:12.642Z,18.80
2022-08-26T05:10:43.935Z,20.67
2022-08-26T05:13:15.148Z,17.33
2022-08-26T05:15:44.365Z,19.47
2022-08-26T05:18:14.857Z,19.10
2022-08-26T05:20:45.398Z,17.60
2022-08-26T05:23:15.910Z,16.80
2022-08-26T05:25:47.877Z,17.90
2022-08-26T05:28:18.004Z,16.70
2022-08-26T05:30:46.711Z,17.53
2022-08-26T05:33:15.202Z,17.93
2022-08-26T05:35:44.271Z,14.30
2022-08-26T05:38:15.829Z,14.47
2022-08-26T05:40:49.007Z,14.97
2022-08-26T05:43:20.986Z,13.90
2022-08-26T05:45:51.108Z,14.83
2022-08-26T05:48:22.770Z,15.53
2022-08-26T05:50:55.639Z,15.23
2022-08-26T05:53:26.120Z,13.80
2022-08-26T05:55:56.727Z,14.80
2022-08-26T05:58:27.351Z,14.70
2022-08-26T06:01:01.249Z,14.50
2022-08-26T06:03:29.621Z,15.00
2022-08-26T06:05:57.897Z,15.33
2022-08-26T06:08:26.479Z,14.10
2022-08-26T06:10:58.025Z,13.13
2022-08-26T06:13:27.963Z,13.80
2022-08-26T06:16:03.282Z,15.17
2022-08-26T06:18:36.477Z,14.93
2022-08-26T06:21:14.410Z,13.93
2022-08-26T06:24:00.906Z,15.20
2022-08-26T06:26:30.656Z,11.13
2022-08-26T06:28:58.954Z,13.50
2022-08-26T06:31:28.539Z,12.70
2022-08-26T06:33:58.260Z,13.60
2022-08-26T06:36:28.002Z,14.67
2022-08-26T06:38:59.844Z,13.50
2022-08-26T06:41:28.078Z,13.90
2022-08-26T06:43:58.192Z,13.93
2022-08-26T06:46:26.379Z,11.60
2022-08-26T06:48:55.092Z,13.13
2022-08-26T06:51:26.387Z,14.50
2022-08-26T06:53:57.221Z,12.43
2022-08-26T06:56:27.636Z,13.87
2022-08-26T06:58:57.223Z,16.03
2022-08-26T07:01:28.093Z,11.60
2022-08-26T07:04:03.899Z,12.00
2022-08-26T07:06:40.359Z,13.97
2022-08-26T07:09:11.051Z,15.57
2022-08-26T07:11:40.330Z,15.47
2022-08-26T07:14:10.041Z,14.60
2022-08-26T07:16:38.109Z,17.23
2022-08-26T07:19:10.877Z,16.30
2022-08-26T07:21:40.235Z,17.50
2022-08-26T07:24:09.108Z,16.90
2022-08-26T07:26:42.964Z,17.40
2022-08-26T07:29:12.801Z,18.07
2022-08-26T07:31:42.809Z,16.93
2022-08-26T07:34:11.757Z,13.60
2022-08-26T07:36:39.926Z,13.43
2022-08-26T07:39:08.441Z,18.07
2022-08-26T07:41:36.946Z,14.57
2022-08-26T07:44:06.888Z,17.90
2022-08-26T07:46:38.316Z,19.03
2022-08-26T07:49:06.931Z,17.50
2022-08-26T07:51:35.634Z,16.97
2022-08-26T07:54:05.510Z,15.33
2022-08-26T07:56:34.331Z,12.77
2022-08-26T07:59:02.500Z,17.60
2022-08-26T08:01:31.459Z,13.10
2022-08-26T08:04:05.393Z,13.20
2022-08-26T08:06:37.466Z,15.93
2022-08-26T08:09:06.782Z,12.17
2022-08-26T08:11:35.237Z,16.33
2022-08-26T08:14:04.459Z,16.23
2022-08-26T08:16:41.510Z,13.20
2022-08-26T08:19:16.067Z,16.57
2022-08-26T08:21:45.095Z,16.40
2022-08-26T08:24:13.522Z,15.23
2022-08-26T08:26:41.916Z,13.30
2022-08-26T08:29:10.319Z,14.83
2022-08-26T08:31:56.810Z,13.80
2022-08-26T08:34:29.651Z,14.20
2022-08-26T08:36:58.175Z,14.20
2022-08-26T08:39:26.637Z,16.47
2022-08-26T08:42:16.294Z,13.83
2022-08-26T08:44:52.231Z,11.80
2022-08-26T08:47:29.131Z,14.30
2022-08-26T08:50:04.249Z,15.03
2022-08-26T08:52:35.842Z,13.93
2022-08-26T08:55:10.979Z,14.00
2022-08-26T08:57:53.808Z,14.40
2022-08-26T09:00:30.060Z,17.87
2022-08-26T09:03:02.907Z,15.00
2022-08-26T09:05:40.206Z,14.23
2022-08-26T09:08:13.178Z,15.87
2022-08-26T09:10:45.430Z,14.60
2022-08-26T09:13:16.994Z,17.67
2022-08-26T09:16:01.743Z,17.43
2022-08-26T09:18:54.679Z,17.53
2022-08-26T09:21:25.595Z,12.77
2022-08-26T09:23:56.803Z,13.07
2022-08-26T09:26:30.822Z,12.30
2022-08-26T09:29:03.444Z,15.10
2022-08-26T09:31:35.480Z,12.93
2022-08-26T09:34:08.593Z,12.33
2022-08-26T09:36:41.686Z,17.60
2022-08-26T09:39:28.045Z,19.10
2022-08-26T09:42:07.609Z,17.03
2022-08-26T09:44:51.867Z,18.60
2022-08-26T09:47:25.435Z,16.87
2022-08-26T09:50:01.544Z,13.67
2022-08-26T09:52:32.107Z,12.73
2022-08-26T09:55:07.571Z,13.37
2022-08-26T09:57:44.900Z,18.53
2022-08-26T10:00:30.120Z,18.60
2022-08-26T10:02:59.870Z,16.57
2022-08-26T10:05:32.051Z,16.87
2022-08-26T10:08:08.725Z,17.50
2022-08-26T10:10:41.955Z,18.80
2022-08-26T10:13:17.361Z,19.13
2022-08-26T10:15:51.734Z,13.97
2022-08-26T10:18:25.075Z,13.40
2022-08-26T10:20:59.006Z,17.60
2022-08-26T10:23:33.987Z,15.30
2022-08-26T10:26:09.571Z,14.90
2022-08-26T10:28:42.468Z,16.20
2022-08-26T10:31:27.695Z,15.60
2022-08-26T10:34:00.517Z,14.90
2022-08-26T10:37:14.377Z,12.97
2022-08-26T10:39:48.055Z,18.97
2022-08-26T10:42:23.364Z,14.03
2022-08-26T10:44:58.613Z,17.13
2022-08-26T10:47:33.759Z,17.10
2022-08-26T10:50:03.675Z,16.97
2022-08-26T10:52:40.903Z,15.40
2022-08-26T10:55:20.180Z,16.90
2022-08-26T10:57:59.376Z,15.73
2022-08-26T11:00:54.696Z,13.27
2022-08-26T11:03:31.763Z,15.43
2022-08-26T11:06:24.284Z,14.30
2022-08-26T11:08:54.068Z,13.73
2022-08-26T11:11:47.042Z,12.77
2022-08-26T11:14:44.650Z,13.47
2022-08-26T11:18:00.139Z,17.20
2022-08-26T11:20:39.334Z,15.17
2022-08-26T11:23:40.301Z,14.00
2022-08-26T11:26:27.445Z,12.10
2022-08-26T11:29:12.855Z,16.67
2022-08-26T11:31:57.515Z,12.77
2022-08-26T11:34:56.626Z,16.20
2022-08-26T11:37:30.720Z,11.60
2022-08-26T11:40:03.163Z,12.03
2022-08-26T11:42:41.919Z,12.33
2022-08-26T11:45:26.398Z,12.23
2022-08-26T11:47:55.092Z,11.80
2022-08-26T11:50:26.877Z,12.33
2022-08-26T11:52:57.108Z,12.40
2022-08-26T11:55:25.730Z,12.90
2022-08-26T11:57:57.625Z,11.50
2022-08-26T12:00:33.427Z,11.67
2022-08-26T12:03:07.625Z,12.00
2022-08-26T12:05:39.622Z,10.87
2022-08-26T12:08:10.065Z,10.33
2022-08-26T12:10:39.202Z,10.73
2022-08-26T12:13:08.506Z,10.30
2022-08-26T12:15:38.046Z,10.07
2022-08-26T12:18:28.700Z,9.40
2022-08-26T12:21:00.499Z,10.13
2022-08-26T12:23:43.407Z,9.67
2022-08-26T12:26:20.604Z,9.60
2022-08-26T12:28:51.544Z,9.57
2022-08-26T12:31:29.146Z,9.90
2022-08-26T12:33:59.438Z,9.57
2022-08-26T12:36:31.596Z,9.30
2022-08-26T12:39:08.556Z,8.93
2022-08-26T12:41:55.288Z,9.53
2022-08-26T12:44:37.043Z,9.20
2022-08-26T12:47:11.083Z,9.53
2022-08-26T12:49:42.330Z,8.97
2022-08-26T12:52:30.880Z,9.23
2022-08-26T12:55:00.895Z,9.00
2022-08-26T12:57:32.181Z,9.20
2022-08-26T13:00:40.578Z,8.67
2022-08-26T13:03:32.814Z,7.97
2022-08-26T13:06:29.673Z,8.80
2022-08-26T13:08:59.446Z,8.40
2022-08-26T13:11:29.751Z,9.03
2022-08-26T13:13:59.883Z,9.33
2022-08-26T13:16:29.034Z,8.70
2022-08-26T13:19:00.686Z,8.20
2022-08-26T13:21:32.030Z,7.70
2022-08-26T13:24:11.658Z,7.30
2022-08-26T13:26:40.072Z,7.63
2022-08-26T13:29:10.453Z,8.17
2022-08-26T13:31:40.851Z,7.70
2022-08-26T13:34:12.229Z,8.70
2022-08-26T13:36:40.364Z,7.60
2022-08-26T13:39:08.684Z,7.50
2022-08-26T13:41:37.137Z,7.40
2022-08-26T13:44:05.920Z,9.10
2022-08-26T13:46:34.303Z,8.17
2022-08-26T13:49:03.135Z,7.50
2022-08-26T13:51:33.254Z,8.77
2022-08-26T13:54:01.487Z,7.80
2022-08-26T13:56:30.458Z,7.63
2022-08-26T13:58:59.405Z,7.57
2022-08-26T14:01:28.713Z,7.47
2022-08-26T14:03:57.465Z,8.20
2022-08-26T14:06:26.025Z,7.87
2022-08-26T14:08:55.554Z,7.90
2022-08-26T14:11:24.843Z,7.97
2022-08-26T14:13:53.237Z,8.40
2022-08-26T14:16:25.229Z,8.10
2022-08-26T14:18:54.067Z,7.50
2022-08-26T14:21:22.416Z,7.70
2022-08-26T14:23:50.494Z,7.70
2022-08-26T14:26:28.594Z,8.13
2022-08-26T14:28:57.829Z,8.13
2022-08-26T14:31:26.974Z,7.57
2022-08-26T14:33:57.292Z,8.10
2022-08-26T14:36:32.349Z,8.20
2022-08-26T14:39:03.567Z,7.77
2022-08-26T14:41:37.039Z,7.67
2022-08-26T14:44:08.956Z,8.03
2022-08-26T14:46:44.419Z,8.13
2022-08-26T14:49:13.286Z,8.27
2022-08-26T14:51:42.030Z,8.43
2022-08-26T14:54:13.765Z,8.00
2022-08-26T14:56:46.597Z,7.40
2022-08-26T14:59:15.996Z,7.77
2022-08-26T15:01:44.376Z,8.80
2022-08-26T15:04:12.611Z,8.03
2022-08-26T15:06:40.856Z,8.07
2022-08-26T15:09:09.466Z,7.77
2022-08-26T15:11:37.670Z,8.07
2022-08-26T15:14:07.881Z,7.20
2022-08-26T15:16:47.591Z,9.07
2022-08-26T15:19:16.089Z,7.50
2022-08-26T15:21:45.528Z,8.20
2022-08-26T15:24:14.002Z,9.63
2022-08-26T15:26:42.205Z,8.40
2022-08-26T15:29:11.693Z,8.77
2022-08-26T15:31:39.859Z,7.90
2022-08-26T15:34:13.282Z,8.50
2022-08-26T15:36:45.724Z,8.43
2022-08-26T15:39:14.532Z,8.50
2022-08-26T15:41:42.589Z,8.90
2022-08-26T15:44:12.832Z,8.83
2022-08-26T15:46:42.018Z,8.23
2022-08-26T15:49:17.557Z,8.57
2022-08-26T15:51:50.297Z,9.50
2022-08-26T15:54:21.232Z,9.23
2022-08-26T15:56:52.091Z,8.37
2022-08-26T15:59:22.749Z,10.37
2022-08-26T16:01:51.142Z,8.13
2022-08-26T16:04:20.114Z,8.00
2022-08-26T16:06:50.358Z,8.70
2022-08-26T16:09:19.206Z,8.47
2022-08-26T16:11:47.356Z,9.10
2022-08-26T16:14:15.792Z,8.57
2022-08-26T16:16:45.297Z,9.17
2022-08-26T16:19:13.828Z,9.60
2022-08-26T16:21:42.740Z,8.60
2022-08-26T16:24:11.479Z,8.90
2022-08-26T16:26:42.069Z,9.80
2022-08-26T16:29:12.267Z,8.83
2022-08-26T16:31:41.259Z,8.77
2022-08-26T16:34:11.407Z,8.10
2022-08-26T16:36:40.410Z,8.93
2022-08-26T16:39:09.756Z,8.80
2022-08-26T16:41:38.411Z,8.47
2022-08-26T16:44:08.047Z,8.33
2022-08-26T16:46:36.942Z,9.13
2022-08-26T16:49:05.435Z,9.00
2022-08-26T16:51:37.945Z,8.77
2022-08-26T16:54:07.823Z,8.73
2022-08-26T16:56:36.929Z,10.53
2022-08-26T16:59:06.352Z,9.40
2022-08-26T17:01:34.663Z,8.80
2022-08-26T17:04:02.831Z,8.73
2022-08-26T17:06:31.012Z,9.40
2022-08-26T17:09:00.546Z,9.20
2022-08-26T17:11:28.650Z,9.70
2022-08-26T17:13:57.449Z,10.40
2022-08-26T17:16:27.048Z,10.00
2022-08-26T17:18:56.775Z,10.37
2022-08-26T17:21:27.903Z,10.53
2022-08-26T17:23:56.229Z,10.33
2022-08-26T17:26:25.798Z,10.50
2022-08-26T17:28:54.116Z,10.90
2022-08-26T17:31:23.281Z,11.37
2022-08-26T17:33:53.682Z,10.93
2022-08-26T17:36:27.518Z,12.97
2022-08-26T17:38:57.467Z,11.23
2022-08-26T17:41:27.800Z,11.57
2022-08-26T17:43:56.379Z,12.17
2022-08-26T17:46:25.037Z,10.17
2022-08-26T17:48:53.485Z,11.30
2022-08-26T17:51:23.417Z,9.67
2022-08-26T17:53:52.301Z,9.60
2022-08-26T17:56:25.393Z,11.03
2022-08-26T17:58:56.974Z,10.90
2022-08-26T18:01:27.259Z,11.50
2022-08-26T18:04:00.243Z,11.47
2022-08-26T18:06:30.370Z,12.43
2022-08-26T18:08:59.189Z,15.30
2022-08-26T18:11:27.977Z,14.87
2022-08-26T18:13:57.701Z,12.17
2022-08-26T18:16:26.129Z,14.13
2022-08-26T18:18:54.311Z,13.00
2022-08-26T18:21:24.744Z,11.80
2022-08-26T18:23:53.736Z,13.00
2022-08-26T18:26:24.181Z,11.30
2022-08-26T18:28:52.832Z,11.03
2022-08-26T18:31:22.697Z,11.30
2022-08-26T18:33:51.228Z,10.93
2022-08-26T18:36:21.654Z,10.70
2022-08-26T18:38:51.096Z,12.43
2022-08-26T18:41:20.754Z,12.47
2022-08-26T18:43:50.443Z,12.10
2022-08-26T18:46:20.340Z,12.23
2022-08-26T18:48:51.049Z,11.07
2022-08-26T18:51:21.671Z,11.03
2022-08-26T18:53:50.271Z,11.20
2022-08-26T18:56:18.939Z,11.13
2022-08-26T18:58:47.144Z,11.77
2022-08-26T19:01:15.891Z,10.37
2022-08-26T19:03:44.232Z,10.30
2022-08-26T19:06:16.928Z,11.03
2022-08-26T19:08:45.209Z,12.10
2022-08-26T19:11:30.160Z,10.30
2022-08-26T19:14:01.510Z,10.30
2022-08-26T19:16:31.069Z,12.00
2022-08-26T19:19:00.994Z,12.30
2022-08-26T19:21:30.989Z,12.00
2022-08-26T19:24:02.367Z,12.77
2022-08-26T19:26:32.589Z,12.97
2022-08-26T19:29:01.219Z,12.80
2022-08-26T19:31:29.329Z,12.03
2022-08-26T19:33:58.972Z,10.30
2022-08-26T19:36:28.552Z,8.37
2022-08-26T19:38:58.746Z,7.40
2022-08-26T19:41:37.240Z,7.63
2022-08-26T19:44:09.162Z,7.40
2022-08-26T19:49:07.174Z,6.33
2022-08-26T19:51:37.304Z,6.67
2022-08-26T19:54:07.067Z,7.70
2022-08-26T19:56:35.229Z,6.93
2022-08-26T19:59:03.374Z,6.90
2022-08-26T20:01:31.713Z,7.30
2022-08-26T20:03:59.974Z,8.20
2022-08-26T20:06:28.062Z,6.87
2022-08-26T20:08:56.460Z,7.33
2022-08-26T20:11:26.389Z,7.00
2022-08-26T20:13:55.249Z,6.80
2022-08-26T20:16:23.501Z,6.77
2022-08-26T20:19:09.327Z,7.03
2022-08-26T20:21:39.973Z,7.20
2022-08-26T20:24:11.653Z,7.13
2022-08-26T20:26:43.383Z,6.33
2022-08-26T20:29:13.751Z,7.13
2022-08-26T20:31:42.281Z,7.40
2022-08-26T20:34:10.877Z,7.00
2022-08-26T20:36:40.537Z,7.00
2022-08-26T20:39:10.726Z,6.70
2022-08-26T20:41:40.608Z,7.30
2022-08-26T20:44:09.329Z,6.80
2022-08-26T20:46:38.688Z,7.30
2022-08-26T20:49:07.574Z,7.93
2022-08-26T20:51:37.266Z,7.40
2022-08-26T20:54:06.224Z,7.90
2022-08-26T20:56:34.385Z,8.40
2022-08-26T20:59:04.829Z,8.13
2022-08-26T21:01:35.462Z,8.00
2022-08-26T21:04:06.874Z,8.90
2022-08-26T21:06:36.647Z,8.30
2022-08-26T21:09:06.216Z,8.30
2022-08-26T21:11:34.851Z,7.90
2022-08-26T21:14:15.683Z,8.80
2022-08-26T21:16:45.202Z,6.73
2022-08-26T21:19:15.498Z,6.80
2022-08-26T21:21:44.473Z,6.50
2022-08-26T21:24:13.336Z,6.87
2022-08-26T21:26:41.455Z,7.70
2022-08-26T21:29:12.051Z,7.53
2022-08-26T21:31:45.667Z,7.50
2022-08-26T21:34:15.393Z,8.20
2022-08-26T21:36:43.557Z,7.57
2022-08-26T21:39:12.423Z,7.60
2022-08-26T21:41:41.080Z,6.80
2022-08-26T21:44:11.981Z,7.43
2022-08-26T21:46:40.315Z,7.27
2022-08-26T21:49:10.715Z,7.90
2022-08-26T21:51:41.163Z,7.40
2022-08-26T21:54:11.251Z,7.37
2022-08-26T21:56:44.093Z,7.10
2022-08-26T21:59:14.982Z,7.37
2022-08-26T22:01:43.145Z,7.73
2022-08-26T22:04:11.865Z,7.00
2022-08-26T22:06:45.537Z,6.17
2022-08-26T22:09:15.538Z,6.60
2022-08-26T22:11:44.382Z,6.77
2022-08-26T22:14:14.635Z,7.10
2022-08-26T22:16:45.694Z,6.60
2022-08-26T22:19:20.927Z,7.57
2022-08-26T22:21:53.433Z,7.87
2022-08-26T22:24:23.285Z,7.50
2022-08-26T22:26:51.956Z,7.63
2022-08-26T22:29:21.863Z,8.43
2022-08-26T22:31:49.994Z,8.00
2022-08-26T22:34:20.464Z,7.50
2022-08-26T22:36:50.403Z,8.13
2022-08-26T22:39:21.222Z,8.30
2022-08-26T22:41:50.198Z,7.83
2022-08-26T22:44:20.435Z,7.90
2022-08-26T22:46:52.335Z,8.37
2022-08-26T22:49:20.922Z,8.87
2022-08-26T22:51:49.080Z,8.33
2022-08-26T22:54:17.726Z,8.70
2022-08-26T22:56:46.396Z,10.23
2022-08-26T22:59:16.181Z,10.73
2022-08-26T23:01:46.290Z,10.97
2022-08-26T23:04:15.992Z,9.80
2022-08-26T23:06:47.429Z,11.10
2022-08-26T23:09:18.078Z,9.80
2022-08-26T23:11:47.386Z,10.60
2022-08-26T23:14:16.329Z,11.10
2022-08-26T23:16:44.673Z,11.57
2022-08-26T23:19:16.514Z,12.77
2022-08-26T23:21:44.998Z,13.20
2022-08-26T23:24:13.428Z,12.10
2022-08-26T23:26:45.658Z,12.87
2022-08-26T23:29:15.872Z,13.60
2022-08-26T23:31:44.137Z,12.97
2022-08-26T23:34:30.456Z,13.90
2022-08-26T23:37:00.981Z,13.07
2022-08-26T23:39:30.004Z,14.03
2022-08-26T23:41:58.246Z,13.57
2022-08-26T23:44:26.899Z,13.37
2022-08-26T23:46:55.211Z,12.90
2022-08-26T23:49:23.380Z,14.30
2022-08-26T23:52:08.874Z,12.60
2022-08-26T23:54:38.814Z,13.27
2022-08-26T23:57:07.427Z,12.60
2022-08-26T23:59:36.046Z,10.40
